Terminal Aerodrome Forecast
Issued by NWS Cleveland, OH

Home | Current Version | Previous Version | Graphics & Text | Print | Product List | Glossary Off
Versions: 1 2 3 4 5 6 7 8 9 10 11 12 13 14 15 16 17 18

785
FTUS41 KCLE 192055 AAA
TAFMFD
TAF AMD
KMFD 192055Z 1921/2018 21012G20KT P6SM -SHRA OVC050
     FM192300 20015G25KT P6SM OVC070
     FM200600 20018G30KT P6SM OVC100=

USA.gov is the U.S. government's official web portal to all federal, state and local government web resources and services.